sensor_id;sensor_type;location;lat;lon;timestamp;pressure;altitude;pressure_sealevel;temperature;humidity
26719;BME280;14326;50.794;6.060;2023-03-14T00:00:31;97227.91;;;11.56;94.00
26719;BME280;14326;50.794;6.060;2023-03-14T00:02:58;97233.06;;;11.61;93.18
26719;BME280;14326;50.794;6.060;2023-03-14T00:05:37;97244.00;;;11.53;93.96
26719;BME280;14326;50.794;6.060;2023-03-14T00:08:10;97275.31;;;11.45;95.63
26719;BME280;14326;50.794;6.060;2023-03-14T00:10:51;97317.03;;;11.44;96.74
26719;BME280;14326;50.794;6.060;2023-03-14T00:13:31;97332.81;;;11.21;92.25
26719;BME280;14326;50.794;6.060;2023-03-14T00:16:08;97342.63;;;10.90;100.00
26719;BME280;14326;50.794;6.060;2023-03-14T00:18:44;97343.44;;;10.61;100.00
26719;BME280;14326;50.794;6.060;2023-03-14T00:21:22;97343.09;;;10.42;100.00
26719;BME280;14326;50.794;6.060;2023-03-14T00:23:49;97334.66;;;10.25;100.00
26719;BME280;14326;50.794;6.060;2023-03-14T00:26:22;97345.53;;;10.17;100.00
26719;BME280;14326;50.794;6.060;2023-03-14T00:28:53;97340.22;;;10.14;100.00
26719;BME280;14326;50.794;6.060;2023-03-14T00:31:20;97330.66;;;10.09;100.00
26719;BME280;14326;50.794;6.060;2023-03-14T00:33:47;97335.34;;;9.99;100.00
26719;BME280;14326;50.794;6.060;2023-03-14T00:36:16;97325.56;;;10.01;100.00
26719;BME280;14326;50.794;6.060;2023-03-14T00:38:44;97316.03;;;9.93;100.00
26719;BME280;14326;50.794;6.060;2023-03-14T00:41:23;97322.19;;;9.95;100.00
26719;BME280;14326;50.794;6.060;2023-03-14T00:43:51;97309.28;;;9.79;100.00
26719;BME280;14326;50.794;6.060;2023-03-14T00:46:18;97309.41;;;9.73;100.00
26719;BME280;14326;50.794;6.060;2023-03-14T00:48:45;97306.91;;;9.67;100.00
26719;BME280;14326;50.794;6.060;2023-03-14T00:51:14;97299.97;;;9.62;100.00
26719;BME280;14326;50.794;6.060;2023-03-14T00:53:41;97308.97;;;9.56;100.00
26719;BME280;14326;50.794;6.060;2023-03-14T00:56:10;97307.16;;;9.58;100.00
26719;BME280;14326;50.794;6.060;2023-03-14T00:58:42;97316.09;;;9.54;100.00
26719;BME280;14326;50.794;6.060;2023-03-14T01:01:22;97311.50;;;9.61;100.00
26719;BME280;14326;50.794;6.060;2023-03-14T01:03:52;97306.13;;;9.64;100.00
26719;BME280;14326;50.794;6.060;2023-03-14T01:06:22;97307.00;;;9.64;100.00
26719;BME280;14326;50.794;6.060;2023-03-14T01:08:49;97294.66;;;9.63;100.00
26719;BME280;14326;50.794;6.060;2023-03-14T01:11:18;97301.59;;;9.67;100.00
26719;BME280;14326;50.794;6.060;2023-03-14T01:13:45;97291.91;;;9.66;100.00
26719;BME280;14326;50.794;6.060;2023-03-14T01:16:33;97288.31;;;9.69;100.00
26719;BME280;14326;50.794;6.060;2023-03-14T01:19:24;97272.38;;;9.69;100.00
26719;BME280;14326;50.794;6.060;2023-03-14T01:22:08;97263.56;;;9.68;100.00
26719;BME280;14326;50.794;6.060;2023-03-14T01:24:43;97255.56;;;9.70;100.00
26719;BME280;14326;50.794;6.060;2023-03-14T01:27:37;97255.59;;;9.68;100.00
26719;BME280;14326;50.794;6.060;2023-03-14T01:30:15;97261.78;;;9.69;100.00
26719;BME280;14326;50.794;6.060;2023-03-14T01:32:42;97257.41;;;9.66;100.00
26719;BME280;14326;50.794;6.060;2023-03-14T01:35:08;97248.69;;;9.61;100.00
26719;BME280;14326;50.794;6.060;2023-03-14T01:37:36;97246.03;;;9.61;100.00
26719;BME280;14326;50.794;6.060;2023-03-14T01:40:10;97251.44;;;9.58;100.00
26719;BME280;14326;50.794;6.060;2023-03-14T01:42:45;97242.47;;;9.62;100.00
26719;BME280;14326;50.794;6.060;2023-03-14T01:47:53;97245.06;;;9.65;100.00
26719;BME280;14326;50.794;6.060;2023-03-14T01:50:22;97235.34;;;9.64;100.00
26719;BME280;14326;50.794;6.060;2023-03-14T01:53:28;97232.81;;;9.60;100.00
26719;BME280;14326;50.794;6.060;2023-03-14T01:56:08;97246.03;;;9.61;100.00
26719;BME280;14326;50.794;6.060;2023-03-14T01:58:49;97240.63;;;9.66;100.00
26719;BME280;14326;50.794;6.060;2023-03-14T02:01:19;97241.56;;;9.63;100.00
26719;BME280;14326;50.794;6.060;2023-03-14T02:03:51;97239.97;;;9.56;100.00
26719;BME280;14326;50.794;6.060;2023-03-14T02:06:21;97236.41;;;9.57;100.00
26719;BME280;14326;50.794;6.060;2023-03-14T02:09:16;97239.03;;;9.59;100.00
26719;BME280;14326;50.794;6.060;2023-03-14T02:11:48;97236.25;;;9.63;100.00
26719;BME280;14326;50.794;6.060;2023-03-14T02:14:24;97230.78;;;9.69;100.00
26719;BME280;14326;50.794;6.060;2023-03-14T02:16:51;97232.44;;;9.73;100.00
26719;BME280;14326;50.794;6.060;2023-03-14T02:19:21;97231.66;;;9.70;100.00
26719;BME280;14326;50.794;6.060;2023-03-14T02:21:54;97225.50;;;9.69;100.00
26719;BME280;14326;50.794;6.060;2023-03-14T02:24:46;97219.03;;;9.79;100.00
26719;BME280;14326;50.794;6.060;2023-03-14T02:27:20;97220.75;;;9.80;100.00
26719;BME280;14326;50.794;6.060;2023-03-14T02:29:58;97204.00;;;9.78;100.00
26719;BME280;14326;50.794;6.060;2023-03-14T02:32:49;97208.25;;;9.85;100.00
26719;BME280;14326;50.794;6.060;2023-03-14T02:35:46;97210.03;;;9.85;100.00
26719;BME280;14326;50.794;6.060;2023-03-14T02:38:40;97200.22;;;9.89;100.00
26719;BME280;14326;50.794;6.060;2023-03-14T02:41:18;97202.94;;;9.85;100.00
26719;BME280;14326;50.794;6.060;2023-03-14T02:43:46;97214.34;;;9.89;100.00
26719;BME280;14326;50.794;6.060;2023-03-14T02:46:25;97214.13;;;9.97;100.00
26719;BME280;14326;50.794;6.060;2023-03-14T02:48:53;97212.53;;;9.90;100.00
26719;BME280;14326;50.794;6.060;2023-03-14T02:51:23;97206.41;;;9.88;100.00
26719;BME280;14326;50.794;6.060;2023-03-14T02:53:52;97199.38;;;9.86;100.00
26719;BME280;14326;50.794;6.060;2023-03-14T02:56:18;97191.53;;;9.82;100.00
26719;BME280;14326;50.794;6.060;2023-03-14T02:58:52;97189.97;;;9.73;100.00
26719;BME280;14326;50.794;6.060;2023-03-14T03:01:29;97195.38;;;9.70;100.00
26719;BME280;14326;50.794;6.060;2023-03-14T03:03:57;97192.84;;;9.66;100.00
26719;BME280;14326;50.794;6.060;2023-03-14T03:06:26;97190.25;;;9.64;100.00
26719;BME280;14326;50.794;6.060;2023-03-14T03:08:53;97185.75;;;9.66;100.00
26719;BME280;14326;50.794;6.060;2023-03-14T03:11:19;97173.50;;;9.61;100.00
26719;BME280;14326;50.794;6.060;2023-03-14T03:13:47;97178.78;;;9.62;100.00
26719;BME280;14326;50.794;6.060;2023-03-14T03:16:14;97180.66;;;9.59;100.00
26719;BME280;14326;50.794;6.060;2023-03-14T03:18:43;97173.63;;;9.56;100.00
26719;BME280;14326;50.794;6.060;2023-03-14T03:21:13;97172.91;;;9.50;100.00
26719;BME280;14326;50.794;6.060;2023-03-14T03:23:48;97174.63;;;9.52;100.00
26719;BME280;14326;50.794;6.060;2023-03-14T03:26:15;97171.06;;;9.53;100.00
26719;BME280;14326;50.794;6.060;2023-03-14T03:28:41;97178.06;;;9.56;100.00
26719;BME280;14326;50.794;6.060;2023-03-14T03:34:10;97159.56;;;9.54;100.00
26719;BME280;14326;50.794;6.060;2023-03-14T03:36:37;97167.41;;;9.57;100.00
26719;BME280;14326;50.794;6.060;2023-03-14T03:39:04;97159.59;;;9.53;100.00
26719;BME280;14326;50.794;6.060;2023-03-14T03:41:31;97161.53;;;9.46;100.00
26719;BME280;14326;50.794;6.060;2023-03-14T03:44:18;97163.31;;;9.45;100.00
26719;BME280;14326;50.794;6.060;2023-03-14T03:46:48;97157.06;;;9.48;100.00
26719;BME280;14326;50.794;6.060;2023-03-14T03:49:17;97159.75;;;9.47;100.00
26719;BME280;14326;50.794;6.060;2023-03-14T03:52:06;97148.28;;;9.46;100.00
26719;BME280;14326;50.794;6.060;2023-03-14T03:54:39;97146.44;;;9.48;100.00
26719;BME280;14326;50.794;6.060;2023-03-14T03:57:32;97155.38;;;9.44;100.00
26719;BME280;14326;50.794;6.060;2023-03-14T04:00:13;97148.28;;;9.44;100.00
26719;BME280;14326;50.794;6.060;2023-03-14T04:02:52;97146.63;;;9.42;100.00
26719;BME280;14326;50.794;6.060;2023-03-14T04:05:20;97146.63;;;9.42;100.00
26719;BME280;14326;50.794;6.060;2023-03-14T04:07:50;97138.72;;;9.39;100.00
26719;BME280;14326;50.794;6.060;2023-03-14T04:13:19;97144.13;;;9.36;100.00
26719;BME280;14326;50.794;6.060;2023-03-14T04:15:46;97139.69;;;9.36;100.00
26719;BME280;14326;50.794;6.060;2023-03-14T04:18:23;97134.38;;;9.36;100.00
26719;BME280;14326;50.794;6.060;2023-03-14T04:21:08;97135.28;;;9.35;100.00
26719;BME280;14326;50.794;6.060;2023-03-14T04:23:44;97128.97;;;9.39;100.00
26719;BME280;14326;50.794;6.060;2023-03-14T04:26:32;97127.03;;;9.46;100.00
26719;BME280;14326;50.794;6.060;2023-03-14T04:29:02;97125.28;;;9.45;100.00
26719;BME280;14326;50.794;6.060;2023-03-14T04:31:29;97127.91;;;9.47;100.00
26719;BME280;14326;50.794;6.060;2023-03-14T04:37:01;97126.22;;;9.42;100.00
26719;BME280;14326;50.794;6.060;2023-03-14T04:39:44;97123.53;;;9.44;100.00
26719;BME280;14326;50.794;6.060;2023-03-14T04:42:32;97126.22;;;9.42;100.00
26719;BME280;14326;50.794;6.060;2023-03-14T04:45:15;97116.50;;;9.43;100.00
26719;BME280;14326;50.794;6.060;2023-03-14T04:47:48;97124.41;;;9.44;100.00
26719;BME280;14326;50.794;6.060;2023-03-14T04:50:19;97128.84;;;9.44;100.00
26719;BME280;14326;50.794;6.060;2023-03-14T04:52:58;97127.03;;;9.46;100.00
26719;BME280;14326;50.794;6.060;2023-03-14T04:55:32;97124.28;;;9.49;100.00
26719;BME280;14326;50.794;6.060;2023-03-14T04:58:13;97112.88;;;9.47;100.00
26719;BME280;14326;50.794;6.060;2023-03-14T05:00:40;97115.56;;;9.45;100.00
26719;BME280;14326;50.794;6.060;2023-03-14T05:03:07;97122.75;;;9.42;100.00
26719;BME280;14326;50.794;6.060;2023-03-14T05:05:33;97113.91;;;9.41;100.00
26719;BME280;14326;50.794;6.060;2023-03-14T05:08:01;97113.91;;;9.41;100.00
26719;BME280;14326;50.794;6.060;2023-03-14T05:10:28;97112.13;;;9.42;100.00
26719;BME280;14326;50.794;6.060;2023-03-14T05:12:54;97115.63;;;9.42;100.00
26719;BME280;14326;50.794;6.060;2023-03-14T05:15:21;97109.53;;;9.39;100.00
26719;BME280;14326;50.794;6.060;2023-03-14T05:17:48;97102.50;;;9.38;100.00
26719;BME280;14326;50.794;6.060;2023-03-14T05:20:15;97108.63;;;9.40;100.00
26719;BME280;14326;50.794;6.060;2023-03-14T05:22:42;97102.50;;;9.38;100.00
26719;BME280;14326;50.794;6.060;2023-03-14T05:25:10;97097.19;;;9.38;100.00
26719;BME280;14326;50.794;6.060;2023-03-14T05:27:37;97082.19;;;9.37;100.00
26719;BME280;14326;50.794;6.060;2023-03-14T05:30:04;97084.06;;;9.33;100.00
26719;BME280;14326;50.794;6.060;2023-03-14T05:32:31;97087.63;;;9.31;100.00
26719;BME280;14326;50.794;6.060;2023-03-14T05:34:58;97076.94;;;9.35;100.00
26719;BME280;14326;50.794;6.060;2023-03-14T05:37:27;97078.78;;;9.32;100.00
26719;BME280;14326;50.794;6.060;2023-03-14T05:39:54;97073.41;;;9.35;100.00
26719;BME280;14326;50.794;6.060;2023-03-14T05:42:22;97082.34;;;9.31;100.00
26719;BME280;14326;50.794;6.060;2023-03-14T05:44:49;97069.13;;;9.29;100.00
26719;BME280;14326;50.794;6.060;2023-03-14T05:47:24;97077.13;;;9.28;100.00
26719;BME280;14326;50.794;6.060;2023-03-14T05:49:51;97076.19;;;9.30;100.00
26719;BME280;14326;50.794;6.060;2023-03-14T05:52:18;97068.16;;;9.32;100.00
26719;BME280;14326;50.794;6.060;2023-03-14T05:54:58;97072.66;;;9.30;100.00
26719;BME280;14326;50.794;6.060;2023-03-14T05:57:42;97078.88;;;9.29;100.00
26719;BME280;14326;50.794;6.060;2023-03-14T06:00:22;97074.47;;;9.28;100.00
26719;BME280;14326;50.794;6.060;2023-03-14T06:02:55;97082.31;;;9.32;100.00
26719;BME280;14326;50.794;6.060;2023-03-14T06:05:31;97071.69;;;9.32;100.00
26719;BME280;14326;50.794;6.060;2023-03-14T06:07:57;97070.75;;;9.35;100.00
26719;BME280;14326;50.794;6.060;2023-03-14T06:10:24;97085.75;;;9.36;100.00
26719;BME280;14326;50.794;6.060;2023-03-14T06:12:55;97072.41;;;9.39;100.00
26719;BME280;14326;50.794;6.060;2023-03-14T06:15:23;97069.75;;;9.39;100.00
26719;BME280;14326;50.794;6.060;2023-03-14T06:17:59;97070.63;;;9.39;100.00
26719;BME280;14326;50.794;6.060;2023-03-14T06:20:36;97063.41;;;9.44;100.00
26719;BME280;14326;50.794;6.060;2023-03-14T06:23:04;97075.66;;;9.49;100.00
26719;BME280;14326;50.794;6.060;2023-03-14T06:25:31;97079.19;;;9.49;100.00
26719;BME280;14326;50.794;6.060;2023-03-14T06:31:16;97086.19;;;9.53;100.00
26719;BME280;14326;50.794;6.060;2023-03-14T06:33:54;97087.13;;;9.51;100.00
26719;BME280;14326;50.794;6.060;2023-03-14T06:36:51;97086.09;;;9.55;100.00
26719;BME280;14326;50.794;6.060;2023-03-14T06:39:29;97074.44;;;9.60;100.00
26719;BME280;14326;50.794;6.060;2023-03-14T06:41:58;97088.56;;;9.62;100.00
26719;BME280;14326;50.794;6.060;2023-03-14T06:44:48;97071.75;;;9.62;100.00
26719;BME280;14326;50.794;6.060;2023-03-14T06:47:37;97069.97;;;9.62;100.00
26719;BME280;14326;50.794;6.060;2023-03-14T06:50:12;97082.25;;;9.66;100.00
26719;BME280;14326;50.794;6.060;2023-03-14T06:52:42;97085.53;;;9.76;100.00
26719;BME280;14326;50.794;6.060;2023-03-14T06:55:13;97095.13;;;9.80;100.00
26719;BME280;14326;50.794;6.060;2023-03-14T06:58:13;97098.59;;;9.83;100.00
26719;BME280;14326;50.794;6.060;2023-03-14T07:00:51;97099.22;;;9.92;100.00
26719;BME280;14326;50.794;6.060;2023-03-14T07:03:31;97096.53;;;9.93;100.00
26719;BME280;14326;50.794;6.060;2023-03-14T07:05:57;97105.22;;;9.98;100.00
26719;BME280;14326;50.794;6.060;2023-03-14T07:08:32;97112.28;;;9.99;100.00
26719;BME280;14326;50.794;6.060;2023-03-14T07:10:59;97104.53;;;9.92;100.00
26719;BME280;14326;50.794;6.060;2023-03-14T07:14:06;97103.63;;;9.93;100.00
26719;BME280;14326;50.794;6.060;2023-03-14T07:16:36;97113.16;;;10.00;100.00
26719;BME280;14326;50.794;6.060;2023-03-14T07:19:04;97126.47;;;9.98;100.00
26719;BME280;14326;50.794;6.060;2023-03-14T07:21:31;97120.06;;;10.05;100.00
26719;BME280;14326;50.794;6.060;2023-03-14T07:23:59;97118.47;;;10.00;100.00
26719;BME280;14326;50.794;6.060;2023-03-14T07:26:26;97120.22;;;10.01;100.00
26719;BME280;14326;50.794;6.060;2023-03-14T07:29:12;97114.91;;;10.01;100.00
26719;BME280;14326;50.794;6.060;2023-03-14T07:31:53;97116.53;;;10.05;100.00
26719;BME280;14326;50.794;6.060;2023-03-14T07:34:35;97125.25;;;10.10;100.00
26719;BME280;14326;50.794;6.060;2023-03-14T07:37:01;97119.00;;;10.12;100.00
26719;BME280;14326;50.794;6.060;2023-03-14T07:39:29;97124.97;;;10.20;100.00
26719;BME280;14326;50.794;6.060;2023-03-14T07:41:56;97125.59;;;10.29;100.00
26719;BME280;14326;50.794;6.060;2023-03-14T07:44:22;97127.09;;;10.37;100.00
26719;BME280;14326;50.794;6.060;2023-03-14T07:46:49;97142.25;;;10.35;100.00
26719;BME280;14326;50.794;6.060;2023-03-14T07:49:24;97138.56;;;10.39;100.00
26719;BME280;14326;50.794;6.060;2023-03-14T07:52:00;97144.72;;;10.41;100.00
26719;BME280;14326;50.794;6.060;2023-03-14T07:54:26;97141.94;;;10.44;100.00
26719;BME280;14326;50.794;6.060;2023-03-14T07:56:53;97150.75;;;10.46;100.00
26719;BME280;14326;50.794;6.060;2023-03-14T07:59:20;97157.91;;;10.44;100.00
26719;BME280;14326;50.794;6.060;2023-03-14T08:01:47;97156.97;;;10.45;100.00
26719;BME280;14326;50.794;6.060;2023-03-14T08:04:13;97158.88;;;10.42;100.00
26719;BME280;14326;50.794;6.060;2023-03-14T08:06:45;97161.66;;;10.37;100.00
26719;BME280;14326;50.794;6.060;2023-03-14T08:09:13;97161.72;;;10.36;100.00
26719;BME280;14326;50.794;6.060;2023-03-14T08:11:41;97163.56;;;10.32;100.00
26719;BME280;14326;50.794;6.060;2023-03-14T08:14:07;97178.56;;;10.35;100.00
26719;BME280;14326;50.794;6.060;2023-03-14T08:17:00;97180.38;;;10.33;100.00
26719;BME280;14326;50.794;6.060;2023-03-14T08:19:27;97184.75;;;10.35;100.00
26719;BME280;14326;50.794;6.060;2023-03-14T08:21:53;97185.66;;;10.34;100.00
26719;BME280;14326;50.794;6.060;2023-03-14T08:24:21;97186.56;;;10.33;100.00
26719;BME280;14326;50.794;6.060;2023-03-14T08:26:48;97196.47;;;10.28;100.00
26719;BME280;14326;50.794;6.060;2023-03-14T08:29:15;97196.47;;;10.28;100.00
26719;BME280;14326;50.794;6.060;2023-03-14T08:31:45;97206.19;;;10.29;100.00
26719;BME280;14326;50.794;6.060;2023-03-14T08:34:22;97196.50;;;10.26;100.00
26719;BME280;14326;50.794;6.060;2023-03-14T08:37:00;97203.56;;;10.27;100.00
26719;BME280;14326;50.794;6.060;2023-03-14T08:39:28;97204.50;;;10.25;100.00
26719;BME280;14326;50.794;6.060;2023-03-14T08:41:54;97217.78;;;10.25;100.00
26719;BME280;14326;50.794;6.060;2023-03-14T08:44:24;97239.88;;;10.27;100.00
26719;BME280;14326;50.794;6.060;2023-03-14T08:47:15;97323.84;;;9.99;100.00
26719;BME280;14326;50.794;6.060;2023-03-14T08:49:46;97312.03;;;9.39;100.00
26719;BME280;14326;50.794;6.060;2023-03-14T08:55:22;97366.31;;;8.83;100.00
26719;BME280;14326;50.794;6.060;2023-03-14T08:58:03;97375.38;;;8.72;100.00
26719;BME280;14326;50.794;6.060;2023-03-14T09:00:29;97378.31;;;8.56;100.00
26719;BME280;14326;50.794;6.060;2023-03-14T09:02:56;97387.47;;;8.39;100.00
26719;BME280;14326;50.794;6.060;2023-03-14T09:05:23;97404.38;;;8.32;100.00
26719;BME280;14326;50.794;6.060;2023-03-14T09:07:49;97426.53;;;8.25;100.00
26719;BME280;14326;50.794;6.060;2023-03-14T09:10:17;97433.75;;;8.15;100.00
26719;BME280;14326;50.794;6.060;2023-03-14T09:12:44;97436.59;;;8.03;100.00
26719;BME280;14326;50.794;6.060;2023-03-14T09:15:11;97449.91;;;8.00;100.00
26719;BME280;14326;50.794;6.060;2023-03-14T09:17:37;97469.31;;;8.00;100.00
26719;BME280;14326;50.794;6.060;2023-03-14T09:20:05;97471.09;;;7.98;100.00
26719;BME280;14326;50.794;6.060;2023-03-14T09:22:34;97478.31;;;7.87;100.00
26719;BME280;14326;50.794;6.060;2023-03-14T09:25:01;97480.06;;;7.88;100.00
26719;BME280;14326;50.794;6.060;2023-03-14T09:27:29;97490.75;;;7.80;100.00
26719;BME280;14326;50.794;6.060;2023-03-14T09:29:55;97512.81;;;7.78;100.00
26719;BME280;14326;50.794;6.060;2023-03-14T09:32:22;97518.97;;;7.81;100.00
26719;BME280;14326;50.794;6.060;2023-03-14T09:34:49;97539.34;;;7.76;100.00
26719;BME280;14326;50.794;6.060;2023-03-14T09:37:15;97525.25;;;7.74;100.00
26719;BME280;14326;50.794;6.060;2023-03-14T09:39:42;97552.69;;;7.66;100.00
26719;BME280;14326;50.794;6.060;2023-03-14T09:42:14;97555.31;;;7.66;100.00
26719;BME280;14326;50.794;6.060;2023-03-14T09:44:51;97592.47;;;7.57;100.00
26719;BME280;14326;50.794;6.060;2023-03-14T09:47:19;97589.84;;;7.57;100.00
26719;BME280;14326;50.794;6.060;2023-03-14T09:49:46;97600.41;;;7.57;100.00
26719;BME280;14326;50.794;6.060;2023-03-14T09:52:15;97606.59;;;7.56;100.00
26719;BME280;14326;50.794;6.060;2023-03-14T09:54:45;97611.06;;;7.54;100.00
26719;BME280;14326;50.794;6.060;2023-03-14T09:57:16;97614.53;;;7.56;100.00
26719;BME280;14326;50.794;6.060;2023-03-14T09:59:45;97632.22;;;7.54;100.00
26719;BME280;14326;50.794;6.060;2023-03-14T10:02:16;97637.38;;;7.61;100.00
26719;BME280;14326;50.794;6.060;2023-03-14T10:04:48;97640.03;;;7.64;100.00
26719;BME280;14326;50.794;6.060;2023-03-14T10:07:22;97641.66;;;7.73;100.00
26719;BME280;14326;50.794;6.060;2023-03-14T10:09:51;97640.63;;;7.86;100.00
26719;BME280;14326;50.794;6.060;2023-03-14T10:12:19;97644.03;;;7.97;100.00
26719;BME280;14326;50.794;6.060;2023-03-14T10:14:55;97651.09;;;7.97;100.00
26719;BME280;14326;50.794;6.060;2023-03-14T10:17:25;97649.25;;;8.03;100.00
26719;BME280;14326;50.794;6.060;2023-03-14T10:22:50;97677.50;;;8.01;100.00
26719;BME280;14326;50.794;6.060;2023-03-14T10:25:27;97685.50;;;7.97;100.00
26719;BME280;14326;50.794;6.060;2023-03-14T10:27:54;97692.63;;;7.93;100.00
26719;BME280;14326;50.794;6.060;2023-03-14T10:30:33;97699.66;;;7.93;100.00
26719;BME280;14326;50.794;6.060;2023-03-14T10:33:08;97704.03;;;7.97;100.00
26719;BME280;14326;50.794;6.060;2023-03-14T10:35:35;97719.81;;;8.04;100.00
26719;BME280;14326;50.794;6.060;2023-03-14T10:38:03;97721.53;;;8.08;100.00
26719;BME280;14326;50.794;6.060;2023-03-14T10:40:32;97736.59;;;8.05;100.00
26719;BME280;14326;50.794;6.060;2023-03-14T10:43:00;97743.66;;;8.04;100.00
26719;BME280;14326;50.794;6.060;2023-03-14T10:45:36;97758.66;;;8.05;100.00
26719;BME280;14326;50.794;6.060;2023-03-14T10:48:18;97775.56;;;7.91;100.00
26719;BME280;14326;50.794;6.060;2023-03-14T10:50:50;97792.59;;;7.61;100.00
26719;BME280;14326;50.794;6.060;2023-03-14T10:53:24;97803.28;;;7.50;100.00
26719;BME280;14326;50.794;6.060;2023-03-14T10:55:51;97792.00;;;7.27;100.00
26719;BME280;14326;50.794;6.060;2023-03-14T10:58:23;97804.41;;;7.16;100.00
26719;BME280;14326;50.794;6.060;2023-03-14T11:01:06;97808.94;;;6.98;100.00
26719;BME280;14326;50.794;6.060;2023-03-14T11:03:36;97814.22;;;6.97;100.00
26719;BME280;14326;50.794;6.060;2023-03-14T11:06:08;97810.59;;;7.16;100.00
26719;BME280;14326;50.794;6.060;2023-03-14T11:08:49;97820.94;;;7.47;100.00
26719;BME280;14326;50.794;6.060;2023-03-14T11:11:24;97827.84;;;7.64;100.00
26719;BME280;14326;50.794;6.060;2023-03-14T11:13:59;97839.94;;;7.94;100.00
26719;BME280;14326;50.794;6.060;2023-03-14T11:16:37;97843.19;;;8.23;100.00
26719;BME280;14326;50.794;6.060;2023-03-14T11:19:17;97850.81;;;8.55;100.00
26719;BME280;14326;50.794;6.060;2023-03-14T11:21:51;97859.25;;;8.89;100.00
26719;BME280;14326;50.794;6.060;2023-03-14T11:24:39;97874.97;;;9.01;100.00
26719;BME280;14326;50.794;6.060;2023-03-14T11:27:26;97879.59;;;8.87;100.00
26719;BME280;14326;50.794;6.060;2023-03-14T11:30:01;97885.78;;;8.85;100.00
26719;BME280;14326;50.794;6.060;2023-03-14T11:32:39;97883.34;;;8.70;100.00
26719;BME280;14326;50.794;6.060;2023-03-14T11:35:16;97895.72;;;8.68;100.00
26719;BME280;14326;50.794;6.060;2023-03-14T11:37:47;97917.84;;;8.65;100.00
26719;BME280;14326;50.794;6.060;2023-03-14T11:42:56;97917.09;;;8.52;100.00
26719;BME280;14326;50.794;6.060;2023-03-14T11:46:01;97936.69;;;8.32;100.00
26719;BME280;14326;50.794;6.060;2023-03-14T11:48:40;97935.06;;;8.15;100.00
26719;BME280;14326;50.794;6.060;2023-03-14T11:51:15;97941.38;;;8.01;100.00
26719;BME280;14326;50.794;6.060;2023-03-14T11:53:55;97959.16;;;7.80;100.00
26719;BME280;14326;50.794;6.060;2023-03-14T11:56:25;97971.53;;;7.72;100.00
26719;BME280;14326;50.794;6.060;2023-03-14T11:58:58;97985.72;;;7.64;100.00
26719;BME280;14326;50.794;6.060;2023-03-14T12:01:33;97997.25;;;7.49;100.00
26719;BME280;14326;50.794;6.060;2023-03-14T12:04:18;98007.84;;;7.43;100.00
26719;BME280;14326;50.794;6.060;2023-03-14T12:06:48;98029.94;;;7.34;100.00
26719;BME280;14326;50.794;6.060;2023-03-14T12:09:16;98035.25;;;7.28;100.00
26719;BME280;14326;50.794;6.060;2023-03-14T12:11:47;98052.06;;;7.09;100.00
26719;BME280;14326;50.794;6.060;2023-03-14T12:14:21;98058.25;;;6.96;100.00
26719;BME280;14326;50.794;6.060;2023-03-14T12:16:48;98065.34;;;6.77;100.00
26719;BME280;14326;50.794;6.060;2023-03-14T12:19:26;98069.72;;;6.62;100.00
26719;BME280;14326;50.794;6.060;2023-03-14T12:21:56;98075.91;;;6.57;100.00
26719;BME280;14326;50.794;6.060;2023-03-14T12:24:27;98089.09;;;6.54;100.00
26719;BME280;14326;50.794;6.060;2023-03-14T12:26:57;98081.19;;;6.57;100.00
26719;BME280;14326;50.794;6.060;2023-03-14T12:29:30;98092.66;;;6.53;100.00
26719;BME280;14326;50.794;6.060;2023-03-14T12:32:12;98096.16;;;6.55;100.00
26719;BME280;14326;50.794;6.060;2023-03-14T12:34:52;98106.72;;;6.55;100.00
26719;BME280;14326;50.794;6.060;2023-03-14T12:37:31;98102.31;;;6.62;100.00
26719;BME280;14326;50.794;6.060;2023-03-14T12:40:15;98104.09;;;6.65;100.00
26719;BME280;14326;50.794;6.060;2023-03-14T12:42:56;98111.13;;;6.64;100.00
26719;BME280;14326;50.794;6.060;2023-03-14T12:45:28;98108.50;;;6.70;100.00
26719;BME280;14326;50.794;6.060;2023-03-14T12:48:08;98129.63;;;6.69;100.00
26719;BME280;14326;50.794;6.060;2023-03-14T12:50:53;98126.97;;;6.72;100.00
26719;BME280;14326;50.794;6.060;2023-03-14T12:53:45;98135.78;;;6.78;100.00
26719;BME280;14326;50.794;6.060;2023-03-14T12:56:26;98140.19;;;6.82;100.00
26719;BME280;14326;50.794;6.060;2023-03-14T12:59:05;98152.53;;;6.76;100.00
26719;BME280;14326;50.794;6.060;2023-03-14T13:01:35;98168.34;;;6.79;100.00
26719;BME280;14326;50.794;6.060;2023-03-14T13:04:04;98193.00;;;6.63;100.00
26719;BME280;14326;50.794;6.060;2023-03-14T13:06:51;98194.75;;;6.57;100.00
26719;BME280;14326;50.794;6.060;2023-03-14T13:09:53;98211.47;;;6.50;100.00
26719;BME280;14326;50.794;6.060;2023-03-14T13:12:31;98223.75;;;6.36;100.00
26719;BME280;14326;50.794;6.060;2023-03-14T13:15:11;98220.25;;;6.34;100.00
26719;BME280;14326;50.794;6.060;2023-03-14T13:17:45;98236.91;;;6.18;100.00
26719;BME280;14326;50.794;6.060;2023-03-14T13:20:21;98231.56;;;6.09;100.00
26719;BME280;14326;50.794;6.060;2023-03-14T13:22:56;98242.06;;;5.94;100.00
26719;BME280;14326;50.794;6.060;2023-03-14T13:25:42;98242.84;;;5.85;100.00
26719;BME280;14326;50.794;6.060;2023-03-14T13:28:14;98249.88;;;5.77;100.00
26719;BME280;14326;50.794;6.060;2023-03-14T13:30:49;98246.34;;;5.84;100.00
26719;BME280;14326;50.794;6.060;2023-03-14T13:33:24;98260.44;;;5.83;100.00
26719;BME280;14326;50.794;6.060;2023-03-14T13:35:55;98257.78;;;5.82;100.00
26719;BME280;14326;50.794;6.060;2023-03-14T13:38:26;98275.34;;;5.80;100.00
26719;BME280;14326;50.794;6.060;2023-03-14T13:40:55;98298.09;;;5.61;100.00
26719;BME280;14326;50.794;6.060;2023-03-14T13:43:27;98316.41;;;5.41;100.00
26719;BME280;14326;50.794;6.060;2023-03-14T13:46:01;98325.13;;;5.34;100.00
26719;BME280;14326;50.794;6.060;2023-03-14T13:48:30;98328.53;;;5.22;100.00
26719;BME280;14326;50.794;6.060;2023-03-14T13:51:03;98328.50;;;5.18;100.00
26719;BME280;14326;50.794;6.060;2023-03-14T13:53:33;98331.16;;;5.21;100.00
26719;BME280;14326;50.794;6.060;2023-03-14T13:56:10;98331.19;;;5.24;100.00